createdAt,value
2018-05-09T00:00:32.930Z,5.10
2018-05-09T00:03:01.004Z,5.27
2018-05-09T00:05:28.567Z,5.70
2018-05-09T00:07:56.146Z,7.47
2018-05-09T00:10:23.698Z,6.30
2018-05-09T00:12:51.223Z,5.83
2018-05-09T00:15:18.791Z,5.70
2018-05-09T00:17:46.356Z,5.63
2018-05-09T00:20:13.905Z,6.57
2018-05-09T00:22:41.429Z,5.73
2018-05-09T00:25:08.963Z,5.70
2018-05-09T00:27:36.615Z,6.37
2018-05-09T00:30:04.131Z,5.73
2018-05-09T00:32:31.701Z,5.90
2018-05-09T00:34:59.262Z,5.40
2018-05-09T00:37:26.833Z,6.20
2018-05-09T00:39:54.406Z,6.03
2018-05-09T00:42:21.929Z,6.20
2018-05-09T00:44:49.563Z,6.57
2018-05-09T00:47:17.063Z,6.73
2018-05-09T00:49:44.594Z,5.93
2018-05-09T00:52:12.133Z,6.30
2018-05-09T00:54:39.670Z,7.10
2018-05-09T00:57:07.226Z,7.43
2018-05-09T00:59:34.829Z,6.67
2018-05-09T01:02:02.381Z,7.37
2018-05-09T01:04:29.898Z,6.90
2018-05-09T01:06:57.405Z,6.53
2018-05-09T01:09:24.966Z,6.67
2018-05-09T01:11:52.498Z,7.37
2018-05-09T01:14:20.079Z,7.20
2018-05-09T01:16:47.638Z,7.30
2018-05-09T01:19:15.183Z,6.73
2018-05-09T01:21:42.700Z,7.27
2018-05-09T01:24:10.500Z,7.47
2018-05-09T01:26:38.058Z,7.10
2018-05-09T01:29:05.626Z,6.53
2018-05-09T01:31:33.135Z,7.60
2018-05-09T01:34:00.694Z,7.23
2018-05-09T01:36:28.259Z,7.10
2018-05-09T01:38:55.827Z,6.90
2018-05-09T01:41:23.435Z,6.70
2018-05-09T01:43:50.967Z,6.90
2018-05-09T01:46:18.534Z,7.27
2018-05-09T01:48:46.102Z,6.80
2018-05-09T01:51:13.686Z,7.37
2018-05-09T01:53:41.181Z,7.27
2018-05-09T01:56:08.691Z,6.93
2018-05-09T01:58:36.269Z,7.37
2018-05-09T02:01:03.794Z,7.20
2018-05-09T02:03:31.351Z,8.17
2018-05-09T02:05:58.936Z,7.87
2018-05-09T02:08:26.441Z,8.13
2018-05-09T02:10:53.979Z,8.47
2018-05-09T02:13:21.485Z,7.90
2018-05-09T02:15:49.044Z,7.80
2018-05-09T02:18:17.485Z,8.40
2018-05-09T02:20:45.033Z,8.93
2018-05-09T02:23:12.563Z,10.40
2018-05-09T02:25:40.085Z,9.03
2018-05-09T02:28:07.695Z,7.50
2018-05-09T02:30:35.193Z,8.00
2018-05-09T02:33:02.722Z,8.00
2018-05-09T02:35:30.277Z,9.07
2018-05-09T02:37:57.833Z,9.27
2018-05-09T02:40:25.413Z,8.73
2018-05-09T02:42:52.930Z,8.60
2018-05-09T02:45:20.437Z,9.40
2018-05-09T02:47:47.962Z,9.27
2018-05-09T02:50:15.490Z,9.30
2018-05-09T02:52:43.860Z,8.27
2018-05-09T02:55:11.389Z,8.40
2018-05-09T02:57:38.906Z,8.70
2018-05-09T03:00:06.480Z,8.70
2018-05-09T03:02:34.429Z,9.67
2018-05-09T03:05:01.982Z,9.30
2018-05-09T03:07:29.510Z,10.37
2018-05-09T03:09:57.052Z,10.63
2018-05-09T03:12:24.610Z,10.27
2018-05-09T03:14:52.131Z,10.27
2018-05-09T03:17:19.682Z,9.97
2018-05-09T03:19:47.229Z,10.30
2018-05-09T03:22:14.773Z,11.20
2018-05-09T03:24:42.320Z,10.67
2018-05-09T03:27:09.830Z,10.50
2018-05-09T03:29:37.432Z,10.63
2018-05-09T03:32:04.971Z,10.93
2018-05-09T03:34:32.513Z,11.37
2018-05-09T03:37:00.075Z,10.70
2018-05-09T03:39:27.632Z,10.50
2018-05-09T03:41:55.188Z,10.07
2018-05-09T03:44:22.699Z,10.83
2018-05-09T03:46:50.207Z,10.97
2018-05-09T03:49:17.793Z,10.80
2018-05-09T03:51:45.363Z,10.47
2018-05-09T03:54:12.935Z,9.97
2018-05-09T03:56:40.458Z,10.53
2018-05-09T03:59:08.012Z,10.90
2018-05-09T04:04:46.430Z,10.27
2018-05-09T04:10:19.727Z,9.23
2018-05-09T04:12:47.218Z,9.37
2018-05-09T04:15:14.754Z,9.03
2018-05-09T04:17:42.310Z,9.30
2018-05-09T04:20:09.861Z,9.07
2018-05-09T04:22:37.376Z,8.27
2018-05-09T04:25:04.889Z,8.70
2018-05-09T04:27:32.492Z,8.33
2018-05-09T04:29:59.995Z,7.73
2018-05-09T04:32:27.490Z,7.80
2018-05-09T04:34:55.038Z,7.77
2018-05-09T04:37:22.560Z,7.83
2018-05-09T04:39:50.084Z,7.10
2018-05-09T04:42:17.581Z,6.77
2018-05-09T04:44:45.087Z,7.63
2018-05-09T04:47:12.620Z,6.47
2018-05-09T04:49:40.107Z,7.13
2018-05-09T04:52:07.638Z,6.53
2018-05-09T04:54:35.147Z,7.17
2018-05-09T04:57:02.655Z,7.97
2018-05-09T04:59:30.188Z,6.37
2018-05-09T05:01:57.700Z,7.07
2018-05-09T05:04:25.266Z,6.97
2018-05-09T05:06:52.847Z,6.80
2018-05-09T05:09:20.357Z,7.07
2018-05-09T05:11:47.878Z,7.50
2018-05-09T05:14:15.420Z,7.17
2018-05-09T05:16:42.974Z,7.13
2018-05-09T05:19:10.502Z,7.00
2018-05-09T05:21:38.005Z,6.60
2018-05-09T05:24:05.761Z,6.93
2018-05-09T05:26:33.269Z,6.43
2018-05-09T05:29:00.859Z,5.70
2018-05-09T05:31:28.368Z,6.30
2018-05-09T05:33:55.922Z,5.83
2018-05-09T05:36:23.451Z,6.03
2018-05-09T05:38:51.057Z,7.30
2018-05-09T05:41:18.565Z,5.97
2018-05-09T05:43:46.090Z,6.17
2018-05-09T05:46:13.589Z,5.83
2018-05-09T05:48:41.160Z,7.43
2018-05-09T05:51:08.655Z,6.00
2018-05-09T05:53:36.833Z,5.30
2018-05-09T05:56:04.421Z,6.63
2018-05-09T05:58:31.871Z,6.07
2018-05-09T06:00:59.453Z,6.00
2018-05-09T06:03:26.978Z,6.03
2018-05-09T06:05:54.526Z,6.30
2018-05-09T06:08:22.051Z,6.40
2018-05-09T06:10:49.574Z,6.37
2018-05-09T06:13:17.103Z,7.50
2018-05-09T06:15:44.660Z,7.27
2018-05-09T06:18:12.223Z,7.00
2018-05-09T06:20:39.746Z,6.78
2018-05-09T06:23:07.243Z,7.85
2018-05-09T06:25:34.815Z,6.72
2018-05-09T06:28:02.365Z,7.13
2018-05-09T06:30:29.907Z,7.20
2018-05-09T06:32:57.447Z,6.73
2018-05-09T06:35:24.991Z,6.93
2018-05-09T06:37:52.540Z,7.03
2018-05-09T06:40:20.080Z,6.73
2018-05-09T06:42:47.622Z,6.20
2018-05-09T06:45:15.150Z,6.22
2018-05-09T06:47:42.663Z,6.10
2018-05-09T06:50:10.200Z,5.25
2018-05-09T06:52:37.735Z,5.20
2018-05-09T06:55:05.345Z,5.70
2018-05-09T06:57:32.868Z,4.90
2018-05-09T07:00:00.472Z,5.82
2018-05-09T07:02:27.979Z,5.20
2018-05-09T07:04:55.497Z,5.05
2018-05-09T07:07:23.035Z,4.97
2018-05-09T07:09:50.562Z,5.07
2018-05-09T07:12:18.065Z,5.57
2018-05-09T07:14:45.665Z,4.05
2018-05-09T07:17:13.157Z,4.40
2018-05-09T07:19:40.725Z,5.03
2018-05-09T07:22:08.311Z,4.68
2018-05-09T07:24:35.758Z,4.87
2018-05-09T07:27:03.352Z,4.00
2018-05-09T07:29:30.873Z,4.95
2018-05-09T07:31:58.409Z,5.03
2018-05-09T07:34:25.926Z,4.80
2018-05-09T07:36:53.472Z,4.60
2018-05-09T07:39:21.026Z,5.23
2018-05-09T07:41:48.536Z,4.73
2018-05-09T07:44:16.070Z,5.17
2018-05-09T07:46:43.573Z,5.57
2018-05-09T07:49:11.103Z,5.00
2018-05-09T07:51:38.653Z,4.83
2018-05-09T07:54:06.191Z,4.27
2018-05-09T07:56:33.733Z,4.80
2018-05-09T07:59:01.234Z,4.90
2018-05-09T08:01:28.726Z,4.83
2018-05-09T08:03:56.263Z,4.87
2018-05-09T08:06:23.774Z,4.83
2018-05-09T08:08:51.304Z,4.53
2018-05-09T08:11:18.798Z,4.37
2018-05-09T08:13:46.302Z,5.03
2018-05-09T08:16:13.843Z,4.73
2018-05-09T08:18:41.374Z,4.40
2018-05-09T08:21:08.912Z,4.30
2018-05-09T08:23:36.435Z,4.63
2018-05-09T08:26:03.932Z,5.47
2018-05-09T08:28:31.489Z,4.07
2018-05-09T08:30:59.009Z,4.30
2018-05-09T08:33:26.517Z,3.37
2018-05-09T08:35:54.068Z,3.63
2018-05-09T08:38:21.550Z,3.23
2018-05-09T08:40:49.082Z,3.57
2018-05-09T08:43:16.674Z,3.70
2018-05-09T08:45:44.157Z,3.47
2018-05-09T08:48:11.682Z,4.33
2018-05-09T08:50:39.207Z,3.67
2018-05-09T08:53:06.798Z,3.17
2018-05-09T08:55:34.453Z,3.67
2018-05-09T08:58:01.907Z,4.07
2018-05-09T09:00:29.904Z,4.05
2018-05-09T09:02:57.443Z,3.83
2018-05-09T09:05:25.016Z,4.50
2018-05-09T09:07:52.517Z,3.33
2018-05-09T09:10:20.062Z,4.50
2018-05-09T09:12:47.589Z,4.12
2018-05-09T09:15:15.233Z,4.00
2018-05-09T09:17:42.765Z,4.23
2018-05-09T09:20:10.363Z,4.43
2018-05-09T09:22:37.929Z,4.17
2018-05-09T09:25:05.437Z,3.47
2018-05-09T09:27:32.959Z,3.73
2018-05-09T09:30:00.516Z,3.80
2018-05-09T09:32:28.008Z,3.70
2018-05-09T09:34:55.631Z,3.20
2018-05-09T09:37:23.194Z,3.67
2018-05-09T09:39:50.723Z,4.23
2018-05-09T09:42:18.296Z,3.43
2018-05-09T09:44:45.830Z,3.37
2018-05-09T09:47:13.426Z,3.10
2018-05-09T09:49:41.004Z,2.95
2018-05-09T09:52:08.540Z,3.33
2018-05-09T09:54:36.059Z,3.30
2018-05-09T09:57:03.592Z,3.40
2018-05-09T09:59:31.152Z,3.17
2018-05-09T10:01:58.669Z,3.30
2018-05-09T10:04:26.213Z,3.23
2018-05-09T10:06:53.784Z,3.40
2018-05-09T10:09:21.293Z,3.37
2018-05-09T10:11:48.849Z,4.00
2018-05-09T10:14:16.337Z,3.50
2018-05-09T10:16:43.837Z,4.10
2018-05-09T10:19:11.479Z,3.57
2018-05-09T10:21:39.065Z,3.70
2018-05-09T10:24:06.651Z,3.50
2018-05-09T10:26:34.198Z,3.70
2018-05-09T10:29:01.713Z,3.37
2018-05-09T10:31:29.292Z,3.23
2018-05-09T10:33:56.813Z,3.13
2018-05-09T10:36:24.402Z,3.70
2018-05-09T10:38:51.967Z,3.17
2018-05-09T10:41:19.487Z,3.30
2018-05-09T10:43:47.062Z,2.90
2018-05-09T10:46:14.599Z,3.30
2018-05-09T10:48:42.187Z,3.00
2018-05-09T10:51:09.773Z,3.33
2018-05-09T10:53:37.314Z,3.37
2018-05-09T10:56:04.817Z,2.77
2018-05-09T10:58:32.362Z,2.90
2018-05-09T11:00:59.866Z,3.53
2018-05-09T11:03:27.459Z,3.17
2018-05-09T11:05:55.014Z,3.17
2018-05-09T11:08:22.539Z,3.07
2018-05-09T11:10:50.140Z,3.00
2018-05-09T11:13:17.685Z,3.30
2018-05-09T11:15:45.223Z,3.30
2018-05-09T11:18:12.747Z,3.00
2018-05-09T11:20:40.262Z,3.23
2018-05-09T11:23:07.799Z,3.03
2018-05-09T11:25:35.337Z,3.20
2018-05-09T11:28:03.845Z,2.97
2018-05-09T11:30:31.381Z,3.07
2018-05-09T11:32:58.907Z,3.30
2018-05-09T11:35:26.475Z,3.77
2018-05-09T11:37:53.999Z,2.73
2018-05-09T11:40:21.560Z,2.87
2018-05-09T11:42:49.087Z,2.67
2018-05-09T11:45:16.636Z,3.13
2018-05-09T11:47:44.180Z,3.57
2018-05-09T11:50:11.704Z,2.73
2018-05-09T11:52:39.255Z,2.50
2018-05-09T11:55:06.812Z,3.07
2018-05-09T11:57:34.324Z,2.50
2018-05-09T12:00:01.890Z,2.63
2018-05-09T12:02:29.512Z,3.00
2018-05-09T12:04:57.022Z,3.33
2018-05-09T12:07:24.556Z,3.20
2018-05-09T12:09:52.104Z,3.00
2018-05-09T12:12:19.677Z,3.03
2018-05-09T12:14:47.219Z,3.37
2018-05-09T12:17:14.745Z,3.10
2018-05-09T12:19:42.291Z,3.17
2018-05-09T12:22:09.823Z,2.80
2018-05-09T12:24:37.438Z,2.87
2018-05-09T12:27:04.971Z,2.73
2018-05-09T12:29:32.531Z,2.63
2018-05-09T12:32:00.056Z,3.37
2018-05-09T12:34:27.585Z,3.27
2018-05-09T12:36:55.134Z,3.33
2018-05-09T12:39:22.702Z,3.47
2018-05-09T12:41:50.307Z,2.97
2018-05-09T12:44:18.878Z,3.40
2018-05-09T12:46:46.558Z,3.50
2018-05-09T12:49:14.117Z,2.70
2018-05-09T12:51:41.641Z,2.90
2018-05-09T12:54:09.193Z,3.00
2018-05-09T12:56:36.730Z,3.37
2018-05-09T12:59:04.266Z,3.13
2018-05-09T13:01:31.813Z,3.10
2018-05-09T13:03:59.336Z,2.97
2018-05-09T13:06:26.893Z,2.40
2018-05-09T13:08:54.418Z,2.70
2018-05-09T13:11:23.985Z,2.43
2018-05-09T13:13:51.529Z,2.17
2018-05-09T13:16:19.054Z,2.20
2018-05-09T13:18:46.641Z,2.60
2018-05-09T13:21:14.165Z,2.73
2018-05-09T13:23:41.734Z,2.53
2018-05-09T13:26:09.313Z,2.83
2018-05-09T13:28:36.876Z,2.57
2018-05-09T13:31:05.173Z,2.23
2018-05-09T13:33:32.707Z,2.30
2018-05-09T13:36:00.216Z,2.30
2018-05-09T13:38:27.749Z,2.27
2018-05-09T13:40:55.251Z,2.17
2018-05-09T13:43:22.795Z,2.33
2018-05-09T13:45:50.318Z,2.33
2018-05-09T13:48:17.863Z,2.10
2018-05-09T13:50:45.446Z,2.30
2018-05-09T13:53:12.955Z,2.40
2018-05-09T13:55:40.489Z,2.13
2018-05-09T13:58:07.996Z,2.20
2018-05-09T14:00:35.518Z,2.30
2018-05-09T14:03:03.038Z,2.23
2018-05-09T14:05:30.538Z,2.23
2018-05-09T14:07:58.071Z,2.30
2018-05-09T14:10:25.566Z,2.20
2018-05-09T14:12:53.066Z,2.00
2018-05-09T14:15:20.583Z,2.50
2018-05-09T14:17:48.076Z,2.53
2018-05-09T14:20:15.612Z,2.30
2018-05-09T14:22:43.112Z,2.30
2018-05-09T14:25:10.623Z,2.40
2018-05-09T14:27:38.159Z,2.33
2018-05-09T14:30:05.718Z,2.17
2018-05-09T14:32:33.255Z,2.00
2018-05-09T14:35:00.762Z,2.57
2018-05-09T14:37:28.270Z,2.07
2018-05-09T14:39:55.797Z,2.40
2018-05-09T14:42:23.295Z,2.43
2018-05-09T14:44:51.756Z,2.50
2018-05-09T14:47:19.258Z,2.27
2018-05-09T14:49:46.759Z,2.63
2018-05-09T14:52:14.278Z,2.40
2018-05-09T14:54:41.781Z,2.53
2018-05-09T14:57:09.310Z,1.80
2018-05-09T14:59:36.807Z,2.20
2018-05-09T15:02:04.310Z,2.30
2018-05-09T15:04:31.833Z,2.27
2018-05-09T15:06:59.334Z,2.20
2018-05-09T15:09:26.907Z,2.30
2018-05-09T15:11:54.445Z,2.23
2018-05-09T15:14:21.946Z,2.03
2018-05-09T15:16:49.463Z,2.33
2018-05-09T15:19:16.962Z,2.20
2018-05-09T15:21:44.487Z,2.60
2018-05-09T15:24:11.990Z,2.40
2018-05-09T15:26:39.481Z,2.20
2018-05-09T15:29:07.010Z,2.20
2018-05-09T15:31:34.561Z,2.30
2018-05-09T15:34:02.095Z,2.37
2018-05-09T15:36:29.598Z,2.17
2018-05-09T15:38:57.134Z,2.20
2018-05-09T15:41:24.641Z,2.33
2018-05-09T15:43:52.154Z,2.40
2018-05-09T15:46:19.670Z,2.60
2018-05-09T15:48:47.170Z,2.23
2018-05-09T15:51:14.668Z,2.40
2018-05-09T15:53:42.195Z,2.30
2018-05-09T15:56:09.702Z,2.60
2018-05-09T15:58:38.226Z,2.60
2018-05-09T16:01:05.722Z,2.10
2018-05-09T16:03:33.232Z,3.10
2018-05-09T16:06:00.768Z,3.00
2018-05-09T16:08:28.263Z,2.90
2018-05-09T16:10:55.815Z,3.30
2018-05-09T16:13:23.323Z,3.00
2018-05-09T16:15:50.839Z,3.03
2018-05-09T16:18:18.353Z,3.63
2018-05-09T16:20:45.851Z,3.10
2018-05-09T16:23:13.381Z,3.20
2018-05-09T16:25:40.890Z,3.13
2018-05-09T16:28:08.386Z,2.50
2018-05-09T16:30:35.909Z,2.70
2018-05-09T16:33:03.411Z,2.57
2018-05-09T16:35:30.951Z,2.53
2018-05-09T16:37:58.458Z,2.80
2018-05-09T16:40:25.965Z,2.70
2018-05-09T16:42:53.494Z,2.70
2018-05-09T16:45:21.003Z,2.77
2018-05-09T16:47:48.535Z,3.07
2018-05-09T16:50:16.032Z,2.90
2018-05-09T16:52:43.530Z,3.13
2018-05-09T16:55:11.055Z,3.23
2018-05-09T16:57:38.571Z,3.53
2018-05-09T17:00:07.106Z,3.47
2018-05-09T17:02:34.609Z,4.07
2018-05-09T17:05:02.109Z,3.67
2018-05-09T17:07:29.635Z,3.80
2018-05-09T17:09:57.142Z,4.97
2018-05-09T17:12:24.667Z,4.30
2018-05-09T17:14:52.175Z,4.13
2018-05-09T17:17:19.686Z,4.13
2018-05-09T17:19:47.216Z,4.77
2018-05-09T17:22:28.565Z,3.97
2018-05-09T17:24:56.095Z,4.37
2018-05-09T17:27:23.641Z,3.80
2018-05-09T17:29:51.144Z,3.83
2018-05-09T17:32:18.673Z,3.63
2018-05-09T17:34:46.217Z,3.70
2018-05-09T17:37:13.718Z,4.30
2018-05-09T17:39:41.245Z,3.83
2018-05-09T17:42:08.750Z,4.33
2018-05-09T17:44:36.255Z,3.50
2018-05-09T17:47:03.785Z,4.57
2018-05-09T17:49:31.289Z,3.53
2018-05-09T17:51:58.781Z,4.07
2018-05-09T17:54:26.311Z,3.63
2018-05-09T17:56:53.902Z,3.40
2018-05-09T17:59:21.441Z,3.53
2018-05-09T18:01:48.938Z,3.63
2018-05-09T18:04:16.447Z,3.63
2018-05-09T18:06:43.969Z,3.50
2018-05-09T18:09:11.486Z,3.23
2018-05-09T18:11:39.018Z,4.10
2018-05-09T18:14:06.528Z,3.70
2018-05-09T18:16:34.021Z,3.80
2018-05-09T18:19:01.631Z,3.60
2018-05-09T18:21:29.044Z,4.17
2018-05-09T18:23:56.569Z,3.30
2018-05-09T18:26:24.069Z,3.50
2018-05-09T18:28:51.569Z,3.30
2018-05-09T18:31:19.097Z,3.10
2018-05-09T18:33:46.627Z,3.23
2018-05-09T18:36:14.169Z,4.00
2018-05-09T18:38:41.669Z,3.50
2018-05-09T18:41:09.182Z,3.83
2018-05-09T18:43:36.705Z,3.60
2018-05-09T18:46:04.190Z,3.30
2018-05-09T18:48:31.729Z,3.30
2018-05-09T18:50:59.237Z,3.80
2018-05-09T18:53:26.751Z,3.70
2018-05-09T18:55:54.275Z,3.30
2018-05-09T18:58:21.765Z,3.50
2018-05-09T19:00:49.296Z,3.43
2018-05-09T19:03:16.796Z,4.03
2018-05-09T19:05:44.302Z,3.80
2018-05-09T19:08:11.825Z,4.10
2018-05-09T19:10:39.330Z,3.43
2018-05-09T19:13:06.866Z,3.60
2018-05-09T19:15:34.385Z,4.00
2018-05-09T19:18:01.896Z,3.90
2018-05-09T19:20:29.427Z,3.40
2018-05-09T19:22:56.925Z,3.90
2018-05-09T19:25:24.458Z,4.77
2018-05-09T19:27:51.949Z,3.97
2018-05-09T19:30:19.455Z,4.40
2018-05-09T19:32:47.012Z,3.97
2018-05-09T19:35:14.602Z,4.20
2018-05-09T19:37:42.160Z,4.30
2018-05-09T19:40:09.718Z,4.20
2018-05-09T19:42:37.232Z,4.23
2018-05-09T19:45:04.793Z,4.20
2018-05-09T19:47:32.364Z,4.23
2018-05-09T19:49:59.906Z,4.60
2018-05-09T19:52:27.423Z,4.10
2018-05-09T19:54:54.949Z,4.10
2018-05-09T19:57:22.955Z,3.50
2018-05-09T19:59:50.494Z,3.53
2018-05-09T20:02:18.143Z,4.33
2018-05-09T20:04:45.673Z,5.07
2018-05-09T20:07:13.272Z,3.80
2018-05-09T20:09:40.790Z,4.10
2018-05-09T20:12:09.212Z,4.30
2018-05-09T20:14:36.977Z,4.60
2018-05-09T20:17:05.030Z,4.10
2018-05-09T20:19:32.588Z,4.37
2018-05-09T20:22:00.115Z,3.20
2018-05-09T20:24:27.920Z,4.00
2018-05-09T20:26:55.675Z,3.80
2018-05-09T20:29:23.346Z,4.33
2018-05-09T20:32:02.801Z,4.27
2018-05-09T20:34:30.362Z,4.70
2018-05-09T20:36:58.094Z,4.33
2018-05-09T20:39:25.935Z,4.37
2018-05-09T20:41:53.581Z,4.10
2018-05-09T20:44:21.146Z,5.20
2018-05-09T20:46:48.938Z,4.93
2018-05-09T20:49:16.792Z,4.67
2018-05-09T20:51:51.330Z,4.10
2018-05-09T20:54:19.557Z,4.27
2018-05-09T20:56:47.383Z,4.33
2018-05-09T20:59:15.135Z,4.33
2018-05-09T21:01:48.607Z,3.80
2018-05-09T21:04:16.225Z,4.67
2018-05-09T21:06:43.808Z,3.77
2018-05-09T21:09:11.364Z,4.30
2018-05-09T21:11:38.956Z,3.80
2018-05-09T21:14:06.542Z,4.53
2018-05-09T21:16:34.128Z,4.60
2018-05-09T21:19:01.720Z,4.87
2018-05-09T21:21:29.277Z,5.60
2018-05-09T21:23:56.940Z,4.87
2018-05-09T21:26:24.544Z,4.80
2018-05-09T21:28:52.082Z,4.77
2018-05-09T21:31:19.606Z,4.83
2018-05-09T21:33:47.247Z,4.97
2018-05-09T21:36:14.818Z,4.70
2018-05-09T21:38:42.389Z,5.00
2018-05-09T21:41:09.955Z,5.60
2018-05-09T21:43:37.474Z,5.00
2018-05-09T21:46:04.996Z,5.37
2018-05-09T21:48:32.549Z,5.40
2018-05-09T21:51:00.210Z,5.23
2018-05-09T21:53:27.754Z,6.00
2018-05-09T21:55:55.379Z,5.33
2018-05-09T21:58:22.895Z,4.57
2018-05-09T22:00:50.462Z,5.47
2018-05-09T22:03:17.996Z,5.63
2018-05-09T22:05:45.566Z,6.10
2018-05-09T22:08:13.212Z,5.50
2018-05-09T22:10:40.760Z,5.87
2018-05-09T22:13:08.335Z,6.00
2018-05-09T22:15:35.938Z,5.60
2018-05-09T22:18:03.458Z,6.13
2018-05-09T22:20:30.971Z,6.27
2018-05-09T22:22:58.551Z,6.13
2018-05-09T22:25:26.089Z,6.03
2018-05-09T22:27:53.642Z,6.10
2018-05-09T22:30:21.197Z,6.50
2018-05-09T22:32:48.776Z,6.43
2018-05-09T22:35:16.326Z,5.87
2018-05-09T22:37:43.853Z,6.10
2018-05-09T22:40:11.427Z,6.13
2018-05-09T22:42:39.008Z,5.63
2018-05-09T22:45:06.541Z,6.47
2018-05-09T22:47:34.106Z,6.67
2018-05-09T22:50:01.680Z,6.33
2018-05-09T22:52:29.230Z,5.93
2018-05-09T22:54:56.819Z,6.20
2018-05-09T22:57:24.309Z,6.57
2018-05-09T22:59:51.861Z,6.53
2018-05-09T23:02:19.451Z,6.67
2018-05-09T23:04:46.989Z,6.40
2018-05-09T23:07:14.561Z,6.60
2018-05-09T23:09:42.067Z,6.63
2018-05-09T23:12:09.652Z,6.30
2018-05-09T23:14:37.171Z,6.20
2018-05-09T23:17:04.785Z,6.43
2018-05-09T23:19:32.375Z,5.40
2018-05-09T23:21:59.892Z,6.30
2018-05-09T23:24:27.439Z,6.20
2018-05-09T23:26:54.996Z,9.13
2018-05-09T23:29:22.557Z,7.97
2018-05-09T23:31:50.083Z,6.03
2018-05-09T23:34:17.597Z,6.73
2018-05-09T23:36:45.181Z,6.40
2018-05-09T23:39:12.728Z,6.90
2018-05-09T23:41:40.435Z,7.60
2018-05-09T23:44:07.993Z,7.87
2018-05-09T23:46:35.587Z,6.90
2018-05-09T23:49:03.118Z,7.43
2018-05-09T23:51:30.614Z,7.97
2018-05-09T23:53:58.158Z,7.97
2018-05-09T23:56:26.667Z,7.40
2018-05-09T23:58:54.185Z,8.17
